Flight Track Log - Related Links

Times and Time Zones

All times are in EDT time to prevent confusion due to time zone crossing. See the DCM7195 flight status page for this flight to view local times or setup timezone preferences in your user account.


Time Position Orientation Groundspeed Altitude Reporting Facility
EDT Latitude Longitude Course Direction KTS MPH feet Rate Location/Type
Tue 04:28:06 PM 41.8650 -91.7894 127° Southeast 182 209 4,100  Level Chicago Center
Tue 04:29:08 PM 41.8331 -91.7328 127° Southeast 180 207 6,100 1,839 Climbing Chicago Center
Tue 04:30:10 PM 41.8133 -91.6703 113° Southeast 185 213 7,900 1,935 Climbing Chicago Center
Tue 04:31:12 PM 41.7936 -91.6031 111° Southeast 193 222 10,100 1,887 Climbing Chicago Center
Tue 04:32:14 PM 41.7722 -91.5333 112° Southeast 201 231 11,800 1,790 Climbing Chicago Center
Tue 04:33:16 PM 41.7467 -91.4494 112° Southeast 205 236 13,800 1,645 Climbing Chicago Center
Tue 04:34:18 PM 41.7250 -91.3808 113° Southeast 203 234 15,200 1,452 Climbing Chicago Center
Tue 04:35:20 PM 41.7028 -91.3114 113° Southeast 205 236 16,800 1,548 Climbing Chicago Center
Tue 04:36:22 PM 41.6831 -91.2422 111° Southeast 201 231 18,400 1,452 Climbing Chicago Center
Tue 04:37:24 PM 41.6619 -91.1753 113° Southeast 199 229 19,800 1,403 Climbing Chicago Center
Tue 04:38:26 PM 41.6367 -91.0931 112° Southeast 201 231 21,300 1,200 Climbing Chicago Center
Tue 04:39:29 PM 41.6144 -91.0228 113° Southeast 206 237 22,300 816 Climbing Chicago Center
Tue 04:40:31 PM 41.5911 -90.9478 113° Southeast 216 249 23,000 339 Climbing Chicago Center
Tue 04:41:33 PM 41.5625 -90.8572 113° Southeast 258 297 23,000  Level Chicago Center
Tue 04:42:35 PM 41.5325 -90.7586 112° Southeast 286 329 23,000  Level Chicago Center
Tue 04:43:37 PM 41.4989 -90.6519 113° Southeast 301 346 23,000  Level Chicago Center
Tue 04:44:39 PM 41.4575 -90.5267 114° Southeast 305 351 23,000  Level Chicago Center
Tue 04:45:41 PM 41.4222 -90.4233 114° Southeast 307 353 23,000  Level Chicago Center
Tue 04:46:43 PM 41.3875 -90.3192 114° Southeast 308 354 23,000  Level Chicago Center
Tue 04:47:45 PM 41.3533 -90.2150 114° Southeast 307 353 23,000  Level Chicago Center
Tue 04:48:47 PM 41.3194 -90.1133 114° Southeast 302 348 23,000  Level Chicago Center
Tue 04:49:49 PM 41.2836 -90.0111 115° Southeast 304 350 23,000  Level Chicago Center
Tue 04:50:51 PM 41.2439 -89.8892 113° Southeast 300 345 23,000  Level Chicago Center
Tue 04:51:53 PM 41.2097 -89.7889 114° Southeast 298 343 23,000  Level Chicago Center
Tue 04:52:56 PM 41.1753 -89.6886 115° Southeast 297 342 23,000  Level Chicago Center
Tue 04:53:58 PM 41.1411 -89.5881 114° Southeast 297 342 23,000  Level Chicago Center
Tue 04:55:00 PM 41.1072 -89.4886 114° Southeast 296 341 23,000  Level Chicago Center
Tue 04:56:02 PM 41.0728 -89.3903 115° Southeast 294 338 23,000  Level Chicago Center
Tue 04:57:04 PM 41.0386 -89.2917 115° Southeast 294 338 23,000  Level Chicago Center
Tue 04:58:06 PM 40.9981 -89.1731 114° Southeast 293 337 23,000  Level Chicago Center
Tue 04:59:08 PM 40.9639 -89.0761 115° Southeast 292 336 23,000  Level Chicago Center
Tue 05:00:10 PM 40.9289 -88.9778 115° Southeast 293 337 23,000  Level Chicago Center
Tue 05:01:12 PM 40.8950 -88.8794 114° Southeast 294 338 23,000  Level Chicago Center
Tue 05:02:14 PM 40.8625 -88.7864 115° Southeast 296 341 23,000  Level Chicago Center
Tue 05:03:17 PM 40.8208 -88.6706 115° Southeast 294 338 23,000  Level Chicago Center
Tue 05:04:19 PM 40.7869 -88.5731 115° Southeast 295 339 23,000  Level Chicago Center
Tue 05:05:21 PM 40.7531 -88.4778 115° Southeast 292 336 23,000  Level Chicago Center
Tue 05:06:23 PM 40.7181 -88.3794 115° Southeast 296 341 23,000  Level Chicago Center
Tue 05:07:25 PM 40.6764 -88.2633 115° Southeast 296 341 23,000  Level Chicago Center
Tue 05:08:27 PM 40.6417 -88.1667 115° Southeast 296 341 23,000  Level Chicago Center
Tue 05:09:29 PM 40.6069 -88.0706 115° Southeast 295 339 23,000  Level Chicago Center
Tue 05:10:31 PM 40.5725 -87.9739 115° Southeast 294 338 23,000  Level Chicago Center
Tue 05:11:33 PM 40.5369 -87.8781 116° Southeast 294 338 23,000  Level Chicago Center
Tue 05:12:35 PM 40.4956 -87.7606 115° Southeast 297 342 23,000  Level Chicago Center
Tue 05:13:37 PM 40.4594 -87.6642 116° Southeast 296 341 23,000  Level Chicago Center
Tue 05:14:40 PM 40.4239 -87.5683 116° Southeast 295 339 23,000 -336 Level Chicago Center
Tue 05:15:42 PM 40.3878 -87.4711 116° Southeast 298 343 22,300 -1,306 Descending Chicago Center
Tue 05:16:44 PM 40.3403 -87.3444 116° Southeast 331 381 20,300 -1,694 Descending Chicago Center
Tue 05:17:46 PM 40.2997 -87.2378 116° Southeast 330 380 18,800 -1,548 Descending Chicago Center
Tue 05:18:48 PM 40.2608 -87.1319 116° Southeast 325 374 17,100 -1,597 Descending Chicago Center
Tue 05:19:50 PM 40.2228 -87.0317 116° Southeast 315 362 15,500 -1,500 Descending Chicago Center
Tue 05:20:52 PM 40.1861 -86.9342 116° Southeast 304 350 14,000 -1,452 Descending Chicago Center
Tue 05:21:54 PM 40.1433 -86.8458 122° Southeast 298 343 12,500 -1,547 Descending Chicago Center
Tue 05:23:00 PM 40.0783 -86.7494 131° Southeast 292 336 10,700 -1,172 Descending Indianapolis Center
Tue 05:24:02 PM 40.0256 -86.6736 132° Southeast 286 329 10,000 -435 Descending Indianapolis Center
Tue 05:25:04 PM 39.9778 -86.6033 132° Southeast 267 307 9,800 -339 Descending Indianapolis Center
Tue 05:26:06 PM 39.9292 -86.5331 132° Southeast 262 302 9,300 -387 Descending Indianapolis Center
Tue 05:27:08 PM 39.8792 -86.4606 132° Southeast 265 305 9,000 -387 Descending Indianapolis Center
Tue 05:28:10 PM 39.8203 -86.3758 132° Southeast 264 304 8,500 -477 Descending Indianapolis Center
Tue 05:28:36 PM 39.8000 -86.3333 122° Southeast 269 310 8,300 -568 Descending Indianapolis TRACON
Tue 05:29:24 PM 39.7500 -86.2833 142° Southeast 273 314 7,800 -1,053 Descending Indianapolis TRACON
Tue 05:30:30 PM 39.7167 -86.2000 117° Southeast 268 308 6,300 -900 Descending Indianapolis TRACON
Tue 05:31:24 PM 39.7500 -86.1167 62° Northeast 242 278 6,000 -224 Descending Indianapolis TRACON
Tue 05:32:17 PM 39.7747 -86.0606 60° Northeast 243 280 5,900 -730 Descending Indianapolis Center
Tue 05:33:19 PM 39.8047 -85.9819 64° Northeast 243 280 4,600 -1,258 Descending Indianapolis Center

Login

Don't have an account? Register now (free) for customized features, flight alerts, and more!